createdAt,value
2023-05-21T00:02:20.838Z,58.77
2023-05-21T00:04:47.623Z,58.81
2023-05-21T00:07:14.344Z,58.86
2023-05-21T00:09:41.055Z,58.90
2023-05-21T00:12:07.998Z,58.82
2023-05-21T00:14:34.683Z,58.87
2023-05-21T00:17:01.409Z,58.92
2023-05-21T00:19:28.135Z,58.91
2023-05-21T00:21:54.850Z,59.02
2023-05-21T00:24:21.534Z,58.96
2023-05-21T00:26:48.251Z,58.92
2023-05-21T00:29:14.953Z,58.91
2023-05-21T00:31:41.732Z,58.90
2023-05-21T00:34:08.789Z,58.89
2023-05-21T00:36:35.710Z,58.91
2023-05-21T00:39:02.471Z,58.92
2023-05-21T00:41:29.245Z,58.94
2023-05-21T00:43:55.945Z,58.98
2023-05-21T00:46:22.758Z,58.97
2023-05-21T00:48:49.480Z,58.96
2023-05-21T00:51:16.172Z,58.96
2023-05-21T00:53:42.880Z,58.99
2023-05-21T00:56:09.769Z,58.93
2023-05-21T00:58:36.684Z,58.97
2023-05-21T01:01:03.402Z,59.00
2023-05-21T01:03:30.312Z,59.01
2023-05-21T01:05:57.138Z,59.05
2023-05-21T01:08:23.855Z,59.03
2023-05-21T01:10:50.764Z,59.06
2023-05-21T01:13:17.470Z,59.04
2023-05-21T01:15:44.178Z,59.03
2023-05-21T01:18:11.163Z,59.03
2023-05-21T01:20:37.920Z,59.01
2023-05-21T01:23:04.598Z,59.00
2023-05-21T01:25:31.282Z,58.96
2023-05-21T01:27:57.978Z,59.01
2023-05-21T01:30:24.689Z,59.03
2023-05-21T01:32:51.439Z,59.03
2023-05-21T01:35:18.169Z,59.03
2023-05-21T01:37:44.856Z,59.04
2023-05-21T01:40:11.528Z,58.99
2023-05-21T01:45:18.653Z,59.05
2023-05-21T01:47:45.526Z,59.04
2023-05-21T01:50:12.182Z,59.04
2023-05-21T01:52:39.057Z,59.02
2023-05-21T01:55:05.718Z,59.06
2023-05-21T01:57:32.622Z,59.03
2023-05-21T01:59:59.284Z,59.04
2023-05-21T02:02:26.028Z,58.99
2023-05-21T02:04:52.735Z,59.03
2023-05-21T02:07:19.380Z,59.06
2023-05-21T02:09:46.258Z,59.06
2023-05-21T02:12:13.160Z,59.02
2023-05-21T02:14:39.920Z,59.00
2023-05-21T02:17:06.609Z,59.02
2023-05-21T02:19:33.356Z,59.02
2023-05-21T02:22:00.153Z,59.04
2023-05-21T02:24:26.809Z,59.02
2023-05-21T02:26:53.684Z,58.99
2023-05-21T02:29:20.558Z,59.04
2023-05-21T02:31:47.227Z,59.00
2023-05-21T02:34:14.141Z,59.02
2023-05-21T02:36:40.801Z,59.05
2023-05-21T02:39:07.450Z,58.99
2023-05-21T02:41:34.103Z,59.00
2023-05-21T02:44:00.966Z,59.00
2023-05-21T02:46:27.665Z,58.97
2023-05-21T02:48:54.375Z,59.00
2023-05-21T02:51:21.238Z,58.94
2023-05-21T02:53:47.897Z,59.03
2023-05-21T02:56:14.794Z,58.99
2023-05-21T02:58:41.443Z,59.03
2023-05-21T03:01:08.329Z,59.00
2023-05-21T03:03:35.149Z,59.03
2023-05-21T03:06:01.856Z,59.01
2023-05-21T03:08:28.503Z,58.97
2023-05-21T03:10:55.172Z,58.97
2023-05-21T03:13:21.872Z,58.98
2023-05-21T03:15:48.555Z,58.95
2023-05-21T03:18:15.304Z,58.92
2023-05-21T03:20:42.248Z,58.91
2023-05-21T03:23:08.894Z,58.97
2023-05-21T03:25:35.943Z,58.92
2023-05-21T03:28:02.739Z,58.95
2023-05-21T03:30:29.404Z,58.96
2023-05-21T03:32:56.113Z,58.98
2023-05-21T03:35:22.777Z,58.95
2023-05-21T03:37:49.442Z,58.93
2023-05-21T03:40:16.110Z,58.92
2023-05-21T03:42:42.764Z,58.94
2023-05-21T03:45:09.430Z,58.91
2023-05-21T03:47:36.159Z,58.92
2023-05-21T03:50:02.891Z,58.92
2023-05-21T03:52:29.535Z,58.95
2023-05-21T03:54:56.183Z,58.92
2023-05-21T03:57:23.059Z,58.91
2023-05-21T03:59:49.720Z,58.95
2023-05-21T04:02:16.466Z,58.93
2023-05-21T04:04:43.176Z,58.93
2023-05-21T04:07:10.090Z,58.88
2023-05-21T04:09:36.936Z,58.88
2023-05-21T04:12:03.802Z,58.87
2023-05-21T04:14:30.477Z,58.92
2023-05-21T04:16:57.136Z,58.93
2023-05-21T04:19:23.839Z,58.88
2023-05-21T04:21:50.506Z,58.86
2023-05-21T04:24:17.196Z,58.88
2023-05-21T04:26:44.076Z,58.93
2023-05-21T04:29:10.726Z,58.90
2023-05-21T04:31:37.428Z,58.88
2023-05-21T04:34:04.124Z,58.88
2023-05-21T04:36:30.802Z,58.86
2023-05-21T04:38:57.488Z,58.90
2023-05-21T04:41:24.137Z,58.86
2023-05-21T04:43:50.783Z,58.88
2023-05-21T04:46:17.674Z,58.86
2023-05-21T04:48:44.607Z,58.86
2023-05-21T04:51:11.258Z,58.80
2023-05-21T04:53:38.123Z,58.84
2023-05-21T04:56:04.778Z,58.83
2023-05-21T04:58:31.659Z,58.81
2023-05-21T05:00:58.343Z,58.81
2023-05-21T05:03:25.185Z,58.79
2023-05-21T05:05:51.967Z,58.80
2023-05-21T05:08:18.622Z,58.79
2023-05-21T05:10:45.286Z,58.82
2023-05-21T05:13:11.942Z,58.80
2023-05-21T05:15:38.772Z,58.78
2023-05-21T05:18:05.574Z,58.78
2023-05-21T05:20:32.237Z,58.79
2023-05-21T05:22:58.912Z,58.82
2023-05-21T05:25:25.589Z,58.76
2023-05-21T05:27:52.479Z,58.81
2023-05-21T05:30:19.189Z,58.76
2023-05-21T05:32:45.904Z,58.77
2023-05-21T05:35:12.593Z,58.77
2023-05-21T05:37:39.243Z,58.81
2023-05-21T05:40:05.907Z,58.81
2023-05-21T05:42:32.771Z,58.80
2023-05-21T05:44:59.438Z,58.80
2023-05-21T05:47:26.145Z,58.80
2023-05-21T05:49:52.842Z,58.84
2023-05-21T05:52:19.520Z,58.81
2023-05-21T05:54:46.197Z,58.80
2023-05-21T05:57:12.865Z,58.80
2023-05-21T05:59:39.526Z,58.80
2023-05-21T06:02:06.192Z,58.76
2023-05-21T06:04:32.853Z,58.77
2023-05-21T06:06:59.510Z,58.77
2023-05-21T06:09:26.166Z,58.74
2023-05-21T06:11:53.038Z,58.73
2023-05-21T06:14:19.934Z,58.73
2023-05-21T06:16:46.600Z,58.73
2023-05-21T06:19:13.746Z,58.75
2023-05-21T06:21:40.687Z,58.71
2023-05-21T06:24:07.330Z,58.68
2023-05-21T06:26:34.222Z,58.67
2023-05-21T06:29:00.914Z,58.70
2023-05-21T06:31:27.587Z,58.64
2023-05-21T06:33:54.450Z,58.64
2023-05-21T06:36:21.535Z,58.67
2023-05-21T06:38:48.421Z,58.60
2023-05-21T06:41:15.086Z,58.60
2023-05-21T06:43:41.760Z,58.57
2023-05-21T06:46:08.485Z,58.58
2023-05-21T06:48:35.464Z,58.56
2023-05-21T06:51:02.127Z,58.61
2023-05-21T06:53:28.993Z,58.58
2023-05-21T06:55:55.872Z,58.53
2023-05-21T06:58:22.553Z,58.55
2023-05-21T07:00:49.348Z,58.51
2023-05-21T07:03:16.481Z,58.51
2023-05-21T07:05:43.251Z,58.49
2023-05-21T07:08:12.803Z,58.44
2023-05-21T07:10:39.485Z,58.44
2023-05-21T07:13:06.185Z,58.43
2023-05-21T07:15:32.904Z,58.42
2023-05-21T07:17:59.817Z,58.43
2023-05-21T07:20:26.751Z,58.40
2023-05-21T07:22:53.640Z,58.35
2023-05-21T07:25:20.291Z,58.38
2023-05-21T07:27:47.151Z,58.37
2023-05-21T07:30:13.840Z,58.36
2023-05-21T07:32:40.537Z,58.37
2023-05-21T07:35:07.440Z,58.36
2023-05-21T07:37:34.380Z,58.36
2023-05-21T07:40:01.092Z,58.39
2023-05-21T07:42:27.988Z,58.43
2023-05-21T07:44:54.656Z,58.37
2023-05-21T07:47:21.327Z,58.42
2023-05-21T07:49:48.019Z,58.39
2023-05-21T07:52:14.693Z,58.38
2023-05-21T07:54:41.354Z,58.39
2023-05-21T07:57:08.627Z,58.36
2023-05-21T07:59:35.329Z,58.34
2023-05-21T08:02:01.981Z,58.34
2023-05-21T08:04:31.091Z,58.37
2023-05-21T08:06:57.786Z,58.42
2023-05-21T08:09:24.439Z,58.37
2023-05-21T08:11:51.081Z,58.41
2023-05-21T08:14:17.752Z,58.43
2023-05-21T08:16:45.287Z,58.47
2023-05-21T08:19:12.016Z,58.47
2023-05-21T08:21:38.701Z,58.47
2023-05-21T08:24:05.369Z,58.51
2023-05-21T08:26:32.032Z,58.48
2023-05-21T08:28:58.687Z,58.48
2023-05-21T08:31:25.401Z,58.52
2023-05-21T08:33:52.091Z,58.59
2023-05-21T08:36:18.782Z,58.57
2023-05-21T08:38:45.653Z,58.60
2023-05-21T08:41:12.301Z,58.67
2023-05-21T08:43:38.952Z,58.63
2023-05-21T08:46:05.670Z,58.70
2023-05-21T08:48:32.409Z,58.71
2023-05-21T08:50:59.098Z,58.68
2023-05-21T08:53:28.741Z,58.71
2023-05-21T08:55:56.185Z,58.71
2023-05-21T08:58:23.077Z,58.74
2023-05-21T09:00:49.804Z,58.75
2023-05-21T09:03:16.668Z,58.73
2023-05-21T09:05:43.432Z,58.73
2023-05-21T09:08:10.315Z,58.73
2023-05-21T09:10:36.991Z,58.75
2023-05-21T09:13:03.882Z,58.73
2023-05-21T09:15:30.599Z,58.74
2023-05-21T09:17:57.532Z,58.69
2023-05-21T09:20:24.220Z,58.74
2023-05-21T09:22:50.877Z,58.76
2023-05-21T09:25:17.527Z,58.79
2023-05-21T09:27:44.417Z,58.80
2023-05-21T09:30:11.081Z,58.82
2023-05-21T09:32:37.804Z,58.80
2023-05-21T09:35:04.553Z,58.81
2023-05-21T09:37:31.201Z,58.84
2023-05-21T09:39:57.859Z,58.81
2023-05-21T09:42:24.512Z,58.83
2023-05-21T09:44:51.514Z,58.85
2023-05-21T09:47:18.940Z,58.88
2023-05-21T09:49:45.612Z,58.85
2023-05-21T09:52:12.480Z,58.89
2023-05-21T09:54:39.130Z,58.85
2023-05-21T09:57:05.792Z,58.86
2023-05-21T09:59:32.461Z,58.87
2023-05-21T10:01:59.150Z,58.86
2023-05-21T10:04:25.871Z,58.87
2023-05-21T10:06:52.571Z,58.85
2023-05-21T10:09:19.237Z,58.92
2023-05-21T10:11:46.108Z,58.90
2023-05-21T10:14:12.764Z,58.91
2023-05-21T10:16:39.514Z,58.93
2023-05-21T10:19:06.274Z,58.94
2023-05-21T10:21:32.977Z,58.95
2023-05-21T10:24:00.093Z,58.92
2023-05-21T10:26:26.764Z,58.96
2023-05-21T10:28:53.422Z,58.92
2023-05-21T10:31:20.144Z,58.80
2023-05-21T10:33:47.079Z,58.78
2023-05-21T10:36:13.737Z,58.77
2023-05-21T10:38:40.387Z,58.74
2023-05-21T10:41:07.049Z,58.69
2023-05-21T10:43:33.712Z,58.64
2023-05-21T10:46:00.397Z,58.64
2023-05-21T10:48:27.079Z,58.65
2023-05-21T10:50:53.737Z,58.62
2023-05-21T10:53:23.681Z,58.58
2023-05-21T10:55:50.343Z,58.59
2023-05-21T10:58:17.231Z,58.52
2023-05-21T11:00:43.889Z,58.52
2023-05-21T11:03:10.820Z,58.59
2023-05-21T11:05:37.555Z,58.56
2023-05-21T11:08:04.477Z,58.56
2023-05-21T11:10:31.131Z,58.51
2023-05-21T11:12:58.068Z,58.56
2023-05-21T11:15:24.739Z,58.56
2023-05-21T11:17:51.405Z,58.56
2023-05-21T11:20:18.093Z,58.58
2023-05-21T11:22:44.751Z,58.54
2023-05-21T11:25:11.400Z,58.56
2023-05-21T11:27:38.096Z,58.40
2023-05-21T11:30:04.978Z,58.41
2023-05-21T11:32:31.919Z,58.45
2023-05-21T11:34:58.813Z,58.46
2023-05-21T11:37:25.472Z,58.48
2023-05-21T11:39:52.357Z,58.45
2023-05-21T11:42:19.023Z,58.52
2023-05-21T11:44:45.699Z,58.49
2023-05-21T11:47:12.350Z,58.43
2023-05-21T11:49:39.012Z,58.39
2023-05-21T11:52:05.665Z,58.43
2023-05-21T11:54:32.319Z,58.46
2023-05-21T11:56:58.969Z,58.48
2023-05-21T11:59:25.619Z,58.47
2023-05-21T12:01:52.769Z,58.45
2023-05-21T12:04:19.443Z,58.45
2023-05-21T12:06:46.120Z,58.48
2023-05-21T12:09:12.789Z,58.48
2023-05-21T12:11:39.437Z,58.40
2023-05-21T12:14:06.242Z,58.39
2023-05-21T12:16:33.004Z,58.34
2023-05-21T12:18:59.937Z,58.34
2023-05-21T12:21:26.625Z,58.30
2023-05-21T12:23:53.504Z,58.34
2023-05-21T12:26:20.188Z,58.36
2023-05-21T12:28:46.845Z,58.43
2023-05-21T12:31:13.738Z,58.44
2023-05-21T12:33:40.401Z,58.47
2023-05-21T12:36:07.058Z,58.44
2023-05-21T12:38:33.717Z,58.45
2023-05-21T12:41:00.392Z,58.43
2023-05-21T12:43:27.055Z,58.47
2023-05-21T12:45:53.802Z,58.43
2023-05-21T12:48:20.691Z,58.47
2023-05-21T12:50:47.376Z,58.46
2023-05-21T12:53:14.029Z,58.40
2023-05-21T12:55:40.829Z,58.45
2023-05-21T12:58:07.552Z,58.43
2023-05-21T13:00:34.355Z,58.45
2023-05-21T13:03:01.492Z,58.41
2023-05-21T13:05:28.214Z,58.38
2023-05-21T13:07:55.079Z,58.31
2023-05-21T13:10:22.034Z,58.30
2023-05-21T13:12:48.928Z,58.27
2023-05-21T13:15:15.890Z,58.32
2023-05-21T13:17:42.601Z,58.27
2023-05-21T13:20:09.550Z,58.45
2023-05-21T13:22:36.354Z,58.41
2023-05-21T13:25:03.032Z,58.48
2023-05-21T13:27:29.684Z,58.47
2023-05-21T13:29:56.362Z,58.51
2023-05-21T13:32:23.086Z,58.46
2023-05-21T13:34:49.832Z,58.46
2023-05-21T13:37:16.480Z,58.44
2023-05-21T13:39:43.360Z,58.48
2023-05-21T13:42:10.011Z,58.55
2023-05-21T13:44:36.900Z,58.50
2023-05-21T13:47:03.676Z,58.47
2023-05-21T13:49:30.708Z,58.47
2023-05-21T13:51:57.364Z,58.52
2023-05-21T13:54:24.026Z,58.48
2023-05-21T13:56:50.912Z,58.58
2023-05-21T13:59:17.554Z,58.51
2023-05-21T14:01:44.229Z,58.50
2023-05-21T14:04:10.917Z,58.53
2023-05-21T14:06:37.596Z,58.53
2023-05-21T14:09:04.845Z,58.55
2023-05-21T14:11:31.509Z,58.53
2023-05-21T14:13:58.169Z,58.59
2023-05-21T14:16:24.972Z,58.53
2023-05-21T14:18:51.720Z,58.56
2023-05-21T14:21:18.407Z,58.62
2023-05-21T14:23:45.054Z,58.60
2023-05-21T14:26:11.727Z,58.59
2023-05-21T14:28:38.373Z,58.61
2023-05-21T14:31:07.510Z,58.60
2023-05-21T14:33:34.178Z,58.60
2023-05-21T14:36:00.840Z,58.52
2023-05-21T14:38:27.518Z,58.65
2023-05-21T14:40:54.417Z,58.67
2023-05-21T14:43:21.081Z,58.65
2023-05-21T14:45:47.792Z,58.64
2023-05-21T14:48:14.460Z,58.68
2023-05-21T14:50:41.339Z,58.62
2023-05-21T14:53:07.995Z,58.67
2023-05-21T14:55:36.769Z,58.66
2023-05-21T14:58:03.797Z,58.66
2023-05-21T15:00:30.656Z,58.64
2023-05-21T15:02:57.568Z,58.62
2023-05-21T15:05:24.308Z,58.64
2023-05-21T15:07:50.955Z,58.57
2023-05-21T15:10:18.731Z,58.67
2023-05-21T15:12:45.716Z,58.77
2023-05-21T15:15:12.380Z,58.69
2023-05-21T15:17:39.089Z,58.69
2023-05-21T15:20:05.824Z,58.71
2023-05-21T15:22:32.702Z,58.77
2023-05-21T15:25:02.683Z,58.71
2023-05-21T15:27:29.345Z,58.75
2023-05-21T15:29:56.229Z,58.81
2023-05-21T15:32:23.091Z,58.75
2023-05-21T15:34:49.941Z,58.88
2023-05-21T15:37:16.835Z,58.83
2023-05-21T15:39:43.500Z,58.84
2023-05-21T15:42:10.431Z,58.83
2023-05-21T15:44:37.096Z,58.82
2023-05-21T15:47:03.867Z,58.89
2023-05-21T15:49:30.547Z,58.81
2023-05-21T15:51:57.209Z,58.82
2023-05-21T15:54:24.082Z,58.86
2023-05-21T15:56:50.736Z,58.88
2023-05-21T15:59:18.121Z,58.90
2023-05-21T16:01:44.808Z,58.89
2023-05-21T16:04:11.823Z,58.94
2023-05-21T16:06:38.556Z,58.87
2023-05-21T16:09:05.230Z,58.94
2023-05-21T16:11:31.900Z,58.90
2023-05-21T16:13:58.761Z,58.88
2023-05-21T16:16:25.431Z,58.93
2023-05-21T16:18:52.348Z,58.99
2023-05-21T16:21:19.039Z,58.99
2023-05-21T16:23:45.693Z,58.93
2023-05-21T16:26:12.356Z,58.97
2023-05-21T16:28:39.229Z,59.00
2023-05-21T16:31:05.902Z,58.96
2023-05-21T16:33:32.797Z,59.02
2023-05-21T16:35:59.472Z,58.98
2023-05-21T16:38:26.333Z,58.95
2023-05-21T16:40:52.980Z,59.02
2023-05-21T16:43:19.842Z,59.04
2023-05-21T16:45:46.571Z,59.00
2023-05-21T16:48:13.550Z,59.04
2023-05-21T16:50:40.235Z,59.02
2023-05-21T16:53:06.908Z,59.05
2023-05-21T16:55:33.575Z,59.06
2023-05-21T16:58:00.257Z,58.98
2023-05-21T17:00:26.909Z,58.98
2023-05-21T17:02:53.633Z,59.01
2023-05-21T17:05:20.368Z,59.01
2023-05-21T17:07:47.016Z,58.99
2023-05-21T17:10:13.897Z,58.94
2023-05-21T17:12:40.570Z,58.96
2023-05-21T17:15:07.237Z,58.99
2023-05-21T17:17:33.926Z,59.02
2023-05-21T17:20:00.636Z,59.01
2023-05-21T17:22:27.283Z,59.03
2023-05-21T17:24:53.934Z,58.99
2023-05-21T17:27:20.588Z,59.03
2023-05-21T17:29:47.473Z,59.02
2023-05-21T17:32:14.123Z,59.02
2023-05-21T17:34:40.786Z,59.09
2023-05-21T17:37:07.468Z,59.09
2023-05-21T17:39:34.128Z,59.11
2023-05-21T17:42:00.780Z,59.15
2023-05-21T17:44:27.448Z,59.18
2023-05-21T17:46:54.138Z,59.21
2023-05-21T17:49:21.620Z,59.24
2023-05-21T17:51:48.277Z,59.25
2023-05-21T17:54:15.162Z,59.26
2023-05-21T17:56:42.759Z,59.22
2023-05-21T17:59:10.570Z,59.29
2023-05-21T18:01:37.276Z,59.26
2023-05-21T18:04:04.001Z,59.30
2023-05-21T18:06:30.708Z,59.30
2023-05-21T18:08:57.581Z,59.34
2023-05-21T18:11:24.466Z,59.35
2023-05-21T18:13:51.672Z,59.36
2023-05-21T18:16:18.355Z,59.32
2023-05-21T18:18:45.145Z,59.35
2023-05-21T18:21:12.083Z,59.38
2023-05-21T18:23:38.743Z,59.36
2023-05-21T18:26:05.598Z,59.39
2023-05-21T18:28:32.493Z,59.44
2023-05-21T18:30:59.161Z,59.45
2023-05-21T18:33:25.819Z,59.45
2023-05-21T18:35:52.486Z,59.42
2023-05-21T18:38:19.373Z,59.51
2023-05-21T18:40:46.271Z,59.53
2023-05-21T18:43:12.946Z,59.46
2023-05-21T18:45:39.867Z,59.53
2023-05-21T18:48:06.572Z,59.54
2023-05-21T18:50:33.255Z,59.50
2023-05-21T18:52:59.921Z,59.51
2023-05-21T18:55:26.861Z,59.57
2023-05-21T18:57:53.532Z,59.57
2023-05-21T19:00:22.849Z,59.63
2023-05-21T19:02:49.594Z,59.63
2023-05-21T19:05:16.610Z,59.59
2023-05-21T19:07:43.311Z,59.64
2023-05-21T19:10:10.170Z,59.61
2023-05-21T19:12:36.833Z,59.61
2023-05-21T19:15:03.999Z,59.65
2023-05-21T19:17:30.685Z,59.64
2023-05-21T19:19:57.357Z,59.60
2023-05-21T19:22:24.053Z,59.63
2023-05-21T19:24:50.711Z,59.61
2023-05-21T19:27:17.360Z,59.60
2023-05-21T19:29:44.031Z,59.59
2023-05-21T19:32:10.690Z,59.61
2023-05-21T19:34:37.338Z,59.55
2023-05-21T19:37:04.237Z,59.60
2023-05-21T19:39:31.122Z,59.65
2023-05-21T19:41:57.784Z,59.67
2023-05-21T19:44:24.460Z,59.59
2023-05-21T19:46:51.367Z,59.68
2023-05-21T19:49:18.031Z,59.67
2023-05-21T19:51:44.686Z,59.61
2023-05-21T19:54:11.345Z,59.67
2023-05-21T19:56:38.021Z,59.68
2023-05-21T19:59:04.717Z,59.67
2023-05-21T20:01:31.400Z,59.66
2023-05-21T20:03:58.121Z,59.68
2023-05-21T20:06:24.815Z,59.64
2023-05-21T20:08:51.464Z,59.68
2023-05-21T20:11:18.124Z,59.64
2023-05-21T20:13:44.991Z,59.66
2023-05-21T20:16:11.659Z,59.71
2023-05-21T20:18:38.930Z,59.68
2023-05-21T20:21:05.585Z,59.68
2023-05-21T20:23:32.242Z,59.63
2023-05-21T20:25:58.894Z,59.64
2023-05-21T20:28:25.774Z,59.62
2023-05-21T20:30:52.595Z,59.68
2023-05-21T20:33:19.346Z,59.69
2023-05-21T20:35:46.203Z,59.67
2023-05-21T20:38:13.087Z,59.68
2023-05-21T20:40:39.872Z,59.68
2023-05-21T20:43:06.615Z,59.64
2023-05-21T20:45:33.350Z,59.66
2023-05-21T20:48:00.047Z,59.67
2023-05-21T20:50:26.950Z,59.69
2023-05-21T20:52:53.586Z,59.66
2023-05-21T20:55:20.242Z,59.67
2023-05-21T20:57:46.911Z,59.69
2023-05-21T21:00:13.796Z,59.64
2023-05-21T21:02:40.603Z,59.67
2023-05-21T21:05:07.305Z,59.69
2023-05-21T21:07:34.009Z,59.65
2023-05-21T21:10:00.721Z,59.65
2023-05-21T21:12:27.387Z,59.64
2023-05-21T21:14:54.042Z,59.70
2023-05-21T21:17:20.713Z,59.71
2023-05-21T21:19:47.412Z,59.70
2023-05-21T21:22:14.075Z,59.65
2023-05-21T21:24:40.749Z,59.70
2023-05-21T21:27:07.409Z,59.67
2023-05-21T21:29:34.075Z,59.64
2023-05-21T21:32:00.757Z,59.67
2023-05-21T21:34:27.403Z,59.71
2023-05-21T21:36:54.271Z,59.65
2023-05-21T21:39:20.937Z,59.64
2023-05-21T21:41:47.598Z,59.69
2023-05-21T21:44:14.250Z,59.65
2023-05-21T21:46:40.923Z,59.69
2023-05-21T21:49:07.654Z,59.67
2023-05-21T21:51:34.538Z,59.68
2023-05-21T21:54:01.200Z,59.65
2023-05-21T21:56:27.851Z,59.64
2023-05-21T21:58:54.508Z,59.61
2023-05-21T22:01:21.191Z,59.61
2023-05-21T22:03:47.892Z,59.69
2023-05-21T22:06:14.547Z,59.64
2023-05-21T22:08:41.272Z,59.61
2023-05-21T22:11:07.949Z,59.59
2023-05-21T22:13:34.831Z,59.55
2023-05-21T22:16:01.507Z,59.59
2023-05-21T22:18:39.484Z,59.62
2023-05-21T22:21:06.714Z,59.65
2023-05-21T22:23:33.370Z,59.64
2023-05-21T22:26:00.053Z,59.66
2023-05-21T22:28:26.747Z,59.66
2023-05-21T22:30:53.453Z,59.62
2023-05-21T22:33:20.186Z,59.62
2023-05-21T22:35:46.874Z,59.69
2023-05-21T22:38:13.739Z,59.63
2023-05-21T22:40:40.705Z,59.59
2023-05-21T22:43:07.716Z,59.61
2023-05-21T22:45:34.394Z,59.69
2023-05-21T22:48:01.104Z,59.64
2023-05-21T22:50:27.785Z,59.57
2023-05-21T22:52:54.436Z,59.61
2023-05-21T22:55:21.088Z,59.57
2023-05-21T22:57:47.744Z,59.60
2023-05-21T23:00:14.410Z,59.61
2023-05-21T23:02:41.092Z,59.62
2023-05-21T23:05:07.844Z,59.57
2023-05-21T23:07:34.587Z,59.63
2023-05-21T23:10:01.285Z,59.59
2023-05-21T23:12:27.938Z,59.59
2023-05-21T23:14:54.585Z,59.63
2023-05-21T23:17:21.236Z,59.63
2023-05-21T23:19:47.904Z,59.61
2023-05-21T23:22:14.563Z,59.59
2023-05-21T23:24:41.218Z,59.55
2023-05-21T23:27:07.888Z,59.60
2023-05-21T23:29:34.547Z,59.62
2023-05-21T23:32:01.336Z,59.62
2023-05-21T23:34:28.044Z,59.62
2023-05-21T23:36:54.694Z,59.61
2023-05-21T23:39:21.350Z,59.61
2023-05-21T23:41:48.025Z,59.61
2023-05-21T23:44:14.701Z,59.65
2023-05-21T23:46:41.355Z,59.63
2023-05-21T23:49:08.029Z,59.62
2023-05-21T23:51:34.679Z,59.66
2023-05-21T23:54:01.363Z,59.65
2023-05-21T23:56:28.042Z,59.70
2023-05-21T23:58:54.702Z,59.65
